createdAt,value
2023-05-23T00:02:55.489Z,99870.72
2023-05-23T00:07:58.128Z,99872.44
2023-05-23T00:13:00.724Z,99858.81
2023-05-23T00:18:03.545Z,99876.88
2023-05-23T00:23:06.185Z,99874.28
2023-05-23T00:28:09.200Z,99871.69
2023-05-23T00:33:14.535Z,99868.34
2023-05-23T00:38:17.722Z,99866.59
2023-05-23T00:43:22.719Z,99867.53
2023-05-23T00:48:26.365Z,99860.72
2023-05-23T00:53:29.174Z,99877.19
2023-05-23T00:58:32.235Z,99837.72
2023-05-23T01:03:34.944Z,99871.22
2023-05-23T01:08:38.147Z,99855.63
2023-05-23T01:13:47.912Z,99856.38
2023-05-23T01:18:59.240Z,99854.69
2023-05-23T01:24:36.575Z,99850.22
2023-05-23T01:29:47.982Z,99843.81
2023-05-23T01:34:53.479Z,99825.53
2023-05-23T01:39:56.205Z,99849.44
2023-05-23T01:44:59.679Z,99850.69
2023-05-23T01:50:03.094Z,99833.06
2023-05-23T01:55:09.877Z,99834.78
2023-05-23T02:00:15.549Z,99811.75
2023-05-23T02:05:18.261Z,99832.50
2023-05-23T02:10:21.553Z,99829.59
2023-05-23T02:15:24.367Z,99826.34
2023-05-23T02:20:27.079Z,99803.22
2023-05-23T02:25:29.804Z,99784.56
2023-05-23T02:30:32.622Z,99785.81
2023-05-23T02:35:35.376Z,99771.16
2023-05-23T02:40:37.982Z,99795.00
2023-05-23T02:45:40.849Z,99768.94
2023-05-23T02:50:44.328Z,99769.53
2023-05-23T02:55:47.111Z,99764.34
2023-05-23T03:00:49.729Z,99800.38
2023-05-23T03:05:52.516Z,99782.97
2023-05-23T03:10:55.191Z,99798.88
2023-05-23T03:15:57.861Z,99807.25
2023-05-23T03:21:00.628Z,99792.88
2023-05-23T03:26:04.055Z,99807.06
2023-05-23T03:31:06.789Z,99810.81
2023-05-23T03:36:09.541Z,99807.25
2023-05-23T03:41:12.211Z,99814.88
2023-05-23T03:46:15.743Z,99814.50
2023-05-23T03:51:18.642Z,99803.72
2023-05-23T03:56:21.606Z,99798.22
2023-05-23T04:01:25.132Z,99790.94
2023-05-23T04:06:31.359Z,99788.72
2023-05-23T04:11:34.285Z,99787.25
2023-05-23T04:16:38.433Z,99777.31
2023-05-23T04:21:41.356Z,99782.75
2023-05-23T04:26:46.119Z,99774.56
2023-05-23T04:31:48.989Z,99785.72
2023-05-23T04:36:53.960Z,99793.13
2023-05-23T04:41:57.966Z,99790.03
2023-05-23T04:47:25.020Z,99782.00
2023-05-23T04:52:37.204Z,99784.94
2023-05-23T04:57:40.302Z,99784.06
2023-05-23T05:02:43.704Z,99790.19
2023-05-23T05:07:46.463Z,99788.53
2023-05-23T05:12:52.039Z,99784.31
2023-05-23T05:17:55.391Z,99787.06
2023-05-23T05:22:58.651Z,99766.91
2023-05-23T05:28:08.592Z,99783.00
2023-05-23T05:33:19.720Z,99794.50
2023-05-23T05:38:22.757Z,99786.00
2023-05-23T05:43:26.836Z,99785.56
2023-05-23T05:48:29.851Z,99787.28
2023-05-23T05:53:37.114Z,99809.88
2023-05-23T05:58:40.693Z,99798.47
2023-05-23T06:03:48.696Z,99802.69
2023-05-23T06:08:51.501Z,99797.47
2023-05-23T06:13:54.298Z,99795.00
2023-05-23T06:18:57.229Z,99777.50
2023-05-23T06:24:03.662Z,99787.34
2023-05-23T06:29:06.677Z,99771.16
2023-05-23T06:34:10.419Z,99772.91
2023-05-23T06:39:13.024Z,99765.41
2023-05-23T06:44:15.852Z,99758.75
2023-05-23T06:49:18.500Z,99751.91
2023-05-23T06:54:21.520Z,99738.63
2023-05-23T06:59:25.269Z,99723.38
2023-05-23T07:04:28.433Z,99732.34
2023-05-23T07:09:35.710Z,99714.66
2023-05-23T07:14:45.040Z,99724.00
2023-05-23T07:19:47.740Z,99716.91
2023-05-23T07:24:50.576Z,99708.09
2023-05-23T07:29:53.976Z,99721.47
2023-05-23T07:34:56.653Z,99714.31
2023-05-23T07:40:01.430Z,99702.88
2023-05-23T07:45:06.225Z,99719.34
2023-05-23T07:50:09.689Z,99716.41
2023-05-23T07:55:13.641Z,99712.59
2023-05-23T08:00:16.949Z,99720.28
2023-05-23T08:05:20.001Z,99717.09
2023-05-23T08:10:28.373Z,99718.28
2023-05-23T08:15:37.792Z,99724.66
2023-05-23T08:20:49.418Z,99721.09
2023-05-23T08:25:53.231Z,99716.03
2023-05-23T08:30:57.406Z,99715.00
2023-05-23T08:36:01.328Z,99700.53
2023-05-23T08:41:09.856Z,99712.06
2023-05-23T08:46:14.637Z,99715.25
2023-05-23T08:51:20.204Z,99705.44
2023-05-23T08:56:28.474Z,99688.19
2023-05-23T09:01:34.145Z,99698.22
2023-05-23T09:06:39.364Z,99697.59
2023-05-23T09:11:46.105Z,99709.78
2023-05-23T09:16:50.443Z,99710.25
2023-05-23T09:21:58.071Z,99709.16
2023-05-23T09:27:05.987Z,99707.25
2023-05-23T09:32:20.414Z,99713.00
2023-05-23T09:37:34.094Z,99716.25
2023-05-23T09:42:45.576Z,99712.06
2023-05-23T09:47:52.979Z,99737.28
2023-05-23T09:52:55.786Z,99730.63
2023-05-23T09:58:00.184Z,99720.69
2023-05-23T10:03:14.857Z,99739.16
2023-05-23T10:08:30.272Z,99716.53
2023-05-23T10:13:33.522Z,99749.78
2023-05-23T10:18:43.958Z,99749.44
2023-05-23T10:23:48.285Z,99730.91
2023-05-23T10:28:52.181Z,99749.97
2023-05-23T10:34:05.074Z,99758.63
2023-05-23T10:39:36.996Z,99763.97
2023-05-23T10:44:39.673Z,99762.81
2023-05-23T10:49:47.745Z,99755.16
2023-05-23T11:07:35.578Z,99780.25
2023-05-23T11:12:42.869Z,99776.06
2023-05-23T11:17:56.745Z,99767.09
2023-05-23T11:23:07.633Z,99772.69
2023-05-23T11:28:11.825Z,99778.44
2023-05-23T11:33:17.202Z,99777.66
2023-05-23T11:38:20.168Z,99793.06
2023-05-23T11:43:22.909Z,99787.25
2023-05-23T11:48:25.579Z,99788.59
2023-05-23T11:53:28.736Z,99793.72
2023-05-23T11:58:34.242Z,99788.06
2023-05-23T12:03:51.483Z,99786.16
2023-05-23T12:08:54.496Z,99791.66
2023-05-23T12:13:57.927Z,99783.22
2023-05-23T12:19:02.286Z,99783.97
2023-05-23T12:24:17.405Z,99784.94
2023-05-23T12:29:22.426Z,99772.34
2023-05-23T12:34:25.283Z,99767.66
2023-05-23T12:39:29.314Z,99752.13
2023-05-23T12:44:32.282Z,99762.56
2023-05-23T12:49:34.930Z,99755.78
2023-05-23T12:54:37.615Z,99761.72
2023-05-23T12:59:40.357Z,99754.16
2023-05-23T13:04:43.066Z,99746.94
2023-05-23T13:09:47.534Z,99742.59
2023-05-23T13:14:51.599Z,99739.41
2023-05-23T13:19:54.397Z,99737.00
2023-05-23T13:24:57.051Z,99739.56
2023-05-23T13:29:59.907Z,99715.31
2023-05-23T13:35:02.630Z,99733.25
2023-05-23T13:40:08.201Z,99743.50
2023-05-23T13:45:11.236Z,99731.59
2023-05-23T13:50:14.014Z,99733.47
2023-05-23T13:55:17.527Z,99728.97
2023-05-23T14:00:20.455Z,99731.28
2023-05-23T14:05:23.600Z,99729.34
2023-05-23T14:10:26.415Z,99732.63
2023-05-23T14:15:30.132Z,99744.31
2023-05-23T14:20:33.781Z,99707.22
2023-05-23T14:25:36.552Z,99727.94
2023-05-23T14:30:39.450Z,99734.63
2023-05-23T15:16:00.751Z,99689.31
2023-05-23T15:21:03.561Z,99676.78
2023-05-23T15:26:06.279Z,99670.81
2023-05-23T15:31:09.095Z,99676.53
2023-05-23T15:36:13.314Z,99648.41
2023-05-23T15:41:16.938Z,99659.34
2023-05-23T15:46:19.779Z,99648.41
2023-05-23T15:51:22.462Z,99642.56
2023-05-23T15:56:25.152Z,99645.81
2023-05-23T16:01:27.875Z,99628.13
2023-05-23T16:06:31.719Z,99649.47
2023-05-23T16:11:34.326Z,99636.91
2023-05-23T16:16:37.008Z,99643.97
2023-05-23T16:21:39.844Z,99637.81
2023-05-23T16:26:42.621Z,99629.03
2023-05-23T16:31:45.300Z,99621.28
2023-05-23T16:36:47.989Z,99620.63
2023-05-23T16:41:50.678Z,99629.28
2023-05-23T16:46:53.355Z,99621.06
2023-05-23T16:51:56.010Z,99627.34
2023-05-23T16:57:01.756Z,99633.50
2023-05-23T17:02:04.970Z,99636.28
2023-05-23T17:07:09.398Z,99635.56
2023-05-23T17:12:13.289Z,99629.81
2023-05-23T17:17:18.650Z,99645.66
2023-05-23T17:22:21.770Z,99644.66
2023-05-23T17:27:24.364Z,99646.56
2023-05-23T17:32:28.075Z,99641.00
2023-05-23T17:37:31.026Z,99645.75
2023-05-23T17:42:33.657Z,99624.56
2023-05-23T17:47:36.392Z,99615.25
2023-05-23T17:52:39.182Z,99612.91
2023-05-23T17:57:41.845Z,99604.63
2023-05-23T18:02:44.871Z,99583.47
2023-05-23T18:07:47.839Z,99595.53
2023-05-23T18:12:50.880Z,99592.88
2023-05-23T18:17:55.606Z,99585.88
2023-05-23T18:22:58.751Z,99574.91
2023-05-23T18:28:02.297Z,99572.41
2023-05-23T18:33:05.088Z,99563.81
2023-05-23T18:38:07.854Z,99555.53
2023-05-23T18:43:10.700Z,99569.34
2023-05-23T18:48:13.380Z,99567.91
2023-05-23T18:53:16.179Z,99557.63
2023-05-23T18:58:19.046Z,99549.00
2023-05-23T19:03:22.070Z,99574.91
2023-05-23T19:08:24.721Z,99559.50
2023-05-23T19:13:27.792Z,99547.00
2023-05-23T19:18:30.563Z,99561.66
2023-05-23T19:23:34.173Z,99557.34
2023-05-23T19:28:37.150Z,99566.66
2023-05-23T19:33:39.843Z,99568.44
2023-05-23T19:38:42.514Z,99559.31
2023-05-23T19:43:45.362Z,99524.94
2023-05-23T19:48:48.792Z,99557.13
2023-05-23T19:53:52.204Z,99510.66
2023-05-23T19:58:55.021Z,99559.50
2023-05-23T20:03:57.686Z,99551.56
2023-05-23T20:09:00.311Z,99547.97
2023-05-23T20:14:02.973Z,99521.97
2023-05-23T20:19:06.587Z,99543.53
2023-05-23T20:24:09.436Z,99533.94
2023-05-23T20:29:12.301Z,99531.22
2023-05-23T20:34:15.011Z,99522.13
2023-05-23T20:39:20.084Z,99535.44
2023-05-23T20:44:23.976Z,99535.63
2023-05-23T20:49:27.791Z,99538.22
2023-05-23T20:54:30.498Z,99525.03
2023-05-23T20:59:33.247Z,99519.75
2023-05-23T21:04:35.839Z,99518.59
2023-05-23T21:09:38.617Z,99532.22
2023-05-23T21:14:44.690Z,99527.94
2023-05-23T21:19:47.366Z,99538.47
2023-05-23T21:24:50.600Z,99533.94
2023-05-23T21:29:53.171Z,99523.78
2023-05-23T21:34:56.540Z,99523.75
2023-05-23T21:39:59.055Z,99523.91
2023-05-23T21:45:01.768Z,99512.53
2023-05-23T21:50:08.242Z,99501.94
2023-05-23T21:55:11.146Z,99508.78
2023-05-23T22:00:14.628Z,99496.03
2023-05-23T22:05:17.295Z,99490.13
2023-05-23T22:10:20.114Z,99498.28
2023-05-23T22:15:23.802Z,99494.38
2023-05-23T22:20:27.972Z,99481.94
2023-05-23T22:25:32.727Z,99492.25
2023-05-23T22:30:35.734Z,99496.81
2023-05-23T22:35:39.811Z,99494.25
2023-05-23T22:40:42.770Z,99484.81
2023-05-23T22:45:45.551Z,99481.63
2023-05-23T22:50:48.198Z,99483.34
2023-05-23T22:55:51.067Z,99483.72
2023-05-23T23:00:53.870Z,99479.72
2023-05-23T23:05:57.529Z,99455.72
2023-05-23T23:11:00.164Z,99484.09
2023-05-23T23:16:02.776Z,99494.56
2023-05-23T23:21:06.014Z,99489.19
2023-05-23T23:26:08.616Z,99493.41
2023-05-23T23:31:11.381Z,99485.50
2023-05-23T23:36:14.459Z,99482.88
2023-05-23T23:41:17.121Z,99481.84
2023-05-23T23:46:21.066Z,99487.72
2023-05-23T23:51:23.809Z,99484.94
2023-05-23T23:56:26.680Z,99487.16
